Time;durP1;ratioP1;P1;durP2;ratioP2;P2;SDS_P1;SDS_P2;PMS_P1;PMS_P2;Temp;Humidity;BMP_temperature;BMP_pressure;BME280_temperature;BME280_humidity;BME280_pressure;Samples;Min_cycle;Max_cycle;Signal;HPM_P1;HPM_P2
2024/03/18 00:01:37;;;;;;;3.17;2.10;;;;;;;17.38;57.18;101367.19;10498610;28;20263;-55
2024/03/18 00:06:38;;;;;;;2.93;1.83;;;;;;;17.41;57.19;101369.34;10497720;28;20278;-54
2024/03/18 00:11:38;;;;;;;2.40;1.75;;;;;;;17.37;57.17;101352.19;10497668;28;20295;-55
2024/03/18 00:16:39;;;;;;;3.43;2.07;;;;;;;17.37;56.85;101353.00;10497584;28;20078;-55
2024/03/18 00:21:39;;;;;;;3.00;1.70;;;;;;;17.38;56.62;101351.13;10497412;28;20298;-55
2024/03/18 00:26:40;;;;;;;2.67;2.03;;;;;;;17.40;56.43;101349.75;10497257;28;20340;-56
2024/03/18 00:31:41;;;;;;;5.32;1.60;;;;;;;17.36;57.29;101343.34;10507495;28;20103;-55
2024/03/18 00:36:41;;;;;;;2.42;1.65;;;;;;;17.37;56.76;101353.00;10498261;28;20529;-55
2024/03/18 00:41:48;;;;;;;2.90;1.40;;;;;;;17.41;56.70;101345.22;10497082;28;20050;-56
2024/03/18 00:46:48;;;;;;;2.55;1.88;;;;;;;17.41;56.54;101338.00;10496227;28;20029;-55
2024/03/18 00:51:49;;;;;;;2.17;1.50;;;;;;;17.37;57.49;101334.22;10496488;28;20025;-55
2024/03/18 00:56:49;;;;;;;2.30;1.60;;;;;;;17.43;55.57;101333.16;10495905;28;20271;-54
2024/03/18 01:01:51;;;;;;;3.17;1.77;;;;;;;17.41;57.15;101329.16;10494748;28;20776;-56
2024/03/18 01:06:52;;;;;;;2.08;1.67;;;;;;;17.38;57.00;101343.06;10495377;28;20529;-55
2024/03/18 01:11:52;;;;;;;2.93;2.00;;;;;;;17.38;57.08;101332.34;10473505;28;20095;-55
2024/03/18 01:16:52;;;;;;;2.73;1.43;;;;;;;17.41;56.11;101329.16;10452783;28;20278;-55
2024/03/18 01:21:53;;;;;;;2.30;1.48;;;;;;;17.41;56.88;101329.16;10453567;28;20352;-55
2024/03/18 01:26:53;;;;;;;2.33;1.63;;;;;;;17.38;56.49;101330.47;10453832;28;20083;-55
2024/03/18 01:31:53;;;;;;;2.03;1.63;;;;;;;17.39;56.12;101326.72;10504784;28;20038;-55
2024/03/18 01:36:54;;;;;;;2.80;1.40;;;;;;;17.41;57.23;101318.44;10494759;28;20336;-55
2024/03/18 01:41:54;;;;;;;1.83;1.33;;;;;;;17.40;56.27;101311.44;10475979;28;20283;-56
2024/03/18 01:46:55;;;;;;;1.57;1.17;;;;;;;17.39;56.78;101309.81;10494352;28;20355;-55
2024/03/18 01:51:55;;;;;;;1.75;1.20;;;;;;;17.40;56.67;101306.88;10493359;28;20290;-56
2024/03/18 01:56:56;;;;;;;2.50;1.40;;;;;;;17.42;55.87;101303.94;10492475;28;20574;-55
2024/03/18 02:01:56;;;;;;;2.20;1.50;;;;;;;17.38;57.08;101302.88;10493341;28;20074;-55
2024/03/18 02:06:59;;;;;;;2.03;1.47;;;;;;;17.38;56.88;101292.94;10493706;28;20345;-55
2024/03/18 02:12:00;;;;;;;1.88;1.35;;;;;;;17.42;57.14;101291.34;10492370;28;20820;-55
2024/03/18 02:17:01;;;;;;;3.25;1.88;;;;;;;17.41;56.26;101291.63;10492315;28;20021;-54
2024/03/18 02:22:06;;;;;;;1.73;1.40;;;;;;;17.39;56.58;101294.53;10492502;28;20020;-55
2024/03/18 02:27:11;;;;;;;2.25;1.25;;;;;;;17.42;56.33;101294.03;10492509;28;20287;-55
2024/03/18 02:32:11;;;;;;;2.28;1.40;;;;;;;17.42;56.87;101279.81;10503893;28;20024;-56
2024/03/18 02:37:12;;;;;;;2.53;1.53;;;;;;;17.43;56.03;101276.06;10492456;28;20425;-54
2024/03/18 02:42:12;;;;;;;1.83;1.13;;;;;;;17.42;56.03;101271.78;10491730;28;20274;-55
2024/03/18 02:47:12;;;;;;;1.70;1.17;;;;;;;17.36;56.40;101268.28;10492240;28;20352;-53
2024/03/18 02:52:13;;;;;;;1.98;1.20;;;;;;;17.35;57.03;101263.22;10491289;28;20286;-54
2024/03/18 02:57:13;;;;;;;1.87;1.33;;;;;;;17.36;56.44;101262.13;10492112;28;20515;-55
2024/03/18 03:02:13;;;;;;;2.20;1.10;;;;;;;17.34;56.46;101262.41;10491325;28;20332;-56
2024/03/18 03:07:14;;;;;;;1.80;1.30;;;;;;;17.36;57.16;101260.25;10491567;28;20649;-56
2024/03/18 03:12:14;;;;;;;1.92;1.13;;;;;;;17.32;56.50;101258.41;10479586;28;20291;-56
2024/03/18 03:17:15;;;;;;;2.00;1.38;;;;;;;17.32;56.89;101250.38;10449889;28;20033;-56
2024/03/18 03:22:15;;;;;;;2.23;1.50;;;;;;;17.34;57.26;101245.53;10449928;28;20029;-55
2024/03/18 03:27:18;;;;;;;1.83;1.30;;;;;;;17.34;56.25;101234.81;10450145;28;20283;-55
2024/03/18 03:32:19;;;;;;;2.60;1.30;;;;;;;17.32;56.42;101231.59;10511401;28;20321;-56
2024/03/18 03:37:19;;;;;;;2.47;1.33;;;;;;;17.28;56.19;101239.38;10499684;28;20521;-55
2024/03/18 03:42:19;;;;;;;1.58;1.33;;;;;;;17.32;56.63;101240.44;10498847;28;20020;-54
2024/03/18 03:47:19;;;;;;;2.03;1.50;;;;;;;17.32;57.28;101234.28;10499571;28;20382;-56
2024/03/18 03:52:20;;;;;;;1.70;1.10;;;;;;;17.33;57.09;101235.88;10497112;28;20290;-56
2024/03/18 03:57:20;;;;;;;1.65;1.08;;;;;;;17.34;56.18;101240.97;10498690;28;20278;-56
2024/03/18 04:02:21;;;;;;;1.92;1.30;;;;;;;17.34;57.04;101243.66;10497866;28;20031;-56
2024/03/18 04:07:25;;;;;;;2.10;1.13;;;;;;;17.36;55.52;101238.81;10498240;28;20107;-56
2024/03/18 04:12:25;;;;;;;1.77;1.50;;;;;;;17.34;56.14;101242.84;10497749;28;20079;-55
2024/03/18 04:17:25;;;;;;;2.17;1.50;;;;;;;17.34;56.80;101238.28;10496359;28;20074;-55
2024/03/18 04:22:26;;;;;;;2.45;1.52;;;;;;;17.35;56.05;101241.78;10497092;28;20277;-55
2024/03/18 04:27:26;;;;;;;2.00;1.42;;;;;;;17.36;56.64;101241.50;10497418;28;20376;-56
2024/03/18 04:32:28;;;;;;;2.30;1.57;;;;;;;17.33;56.11;101251.97;10508368;28;20020;-56
2024/03/18 04:37:29;;;;;;;1.77;1.40;;;;;;;17.31;56.44;101249.56;10497045;28;20282;-54
2024/03/18 04:42:29;;;;;;;2.78;1.38;;;;;;;17.30;56.22;101245.28;10495717;28;20046;-54
2024/03/18 04:47:29;;;;;;;2.05;1.33;;;;;;;17.34;56.09;101249.00;10494013;28;20609;-55
2024/03/18 04:52:30;;;;;;;1.70;1.43;;;;;;;17.33;56.71;101250.09;10488418;28;20475;-56
2024/03/18 04:57:30;;;;;;;1.48;1.27;;;;;;;17.35;57.18;101253.28;10494626;28;20277;-56
2024/03/18 05:02:30;;;;;;;1.85;1.10;;;;;;;17.34;56.72;101253.56;10495792;28;20780;-56
2024/03/18 05:07:31;;;;;;;2.27;1.60;;;;;;;17.32;55.57;101251.16;10495690;28;20507;-55
2024/03/18 05:12:31;;;;;;;1.80;1.33;;;;;;;17.35;56.63;101255.16;10494768;28;20297;-54
2024/03/18 05:17:31;;;;;;;2.05;1.60;;;;;;;17.37;56.09;101255.69;10495418;28;20296;-55
2024/03/18 05:22:32;;;;;;;1.88;1.23;;;;;;;17.35;55.70;101257.84;10494937;28;20024;-56
2024/03/18 05:27:33;;;;;;;2.08;1.08;;;;;;;17.37;56.62;101263.72;10494925;28;20077;-56
2024/03/18 05:32:33;;;;;;;2.25;1.48;;;;;;;17.39;55.96;101256.22;10506434;28;20060;-56
2024/03/18 05:37:34;;;;;;;2.22;1.30;;;;;;;17.37;56.57;101259.16;10493085;28;20041;-55
2024/03/18 05:42:35;;;;;;;1.92;1.65;;;;;;;17.35;55.42;101263.22;10460096;28;20134;-56
2024/03/18 05:47:35;;;;;;;1.52;1.10;;;;;;;17.36;56.62;101264.81;10488971;28;20031;-56
2024/03/18 05:52:36;;;;;;;1.93;1.30;;;;;;;17.38;56.26;101259.97;10489334;28;20035;-55
2024/03/18 05:57:36;;;;;;;2.20;1.13;;;;;;;17.36;56.54;101260.25;10455627;28;20275;-56
2024/03/18 06:02:36;;;;;;;2.37;1.43;;;;;;;17.38;56.71;101265.34;10451922;28;20268;-58
2024/03/18 06:07:37;;;;;;;4.60;1.53;;;;;;;17.48;57.73;101271.47;10488334;28;20278;-57
2024/03/18 06:12:37;;;;;;;5.20;1.80;;;;;;;17.62;57.92;101268.19;10492705;28;20299;-53
2024/03/18 06:17:38;;;;;;;4.97;1.75;;;;;;;17.62;58.92;101277.03;10491761;28;20016;-56
2024/03/18 06:22:38;;;;;;;6.47;2.23;;;;;;;17.57;58.78;101276.25;10492568;28;20039;-56
2024/03/18 06:27:39;;;;;;;5.90;1.58;;;;;;;17.53;57.78;101271.47;10492459;28;20282;-56
2024/03/18 06:32:39;;;;;;;7.13;1.88;;;;;;;17.46;57.85;101268.25;10505243;28;20433;-55
2024/03/18 06:37:39;;;;;;;6.83;2.57;;;;;;;17.48;58.82;101270.66;10492457;28;20029;-55
2024/03/18 06:42:40;;;;;;;8.98;2.50;;;;;;;17.45;58.07;101269.34;10491724;28;20264;-53
2024/03/18 06:47:40;;;;;;;8.38;2.42;;;;;;;17.49;59.19;101280.31;10492259;28;20032;-54
2024/03/18 06:52:40;;;;;;;7.07;2.80;;;;;;;17.42;59.62;101285.97;10479577;28;20035;-54
2024/03/18 06:57:41;;;;;;;7.60;3.10;;;;;;;17.36;59.60;101286.25;10489734;28;20274;-55
2024/03/18 07:02:41;;;;;;;11.15;3.00;;;;;;;17.39;59.42;101289.19;10462656;28;20291;-53
2024/03/18 07:07:41;;;;;;;18.47;3.30;;;;;;;17.32;59.07;101294.03;10487239;28;20039;-57
2024/03/18 07:12:43;;;;;;;10.03;3.70;;;;;;;17.34;59.47;101294.56;10490224;28;20294;-56
2024/03/18 07:17:44;;;;;;;6.88;2.95;;;;;;;17.29;59.64;101299.16;10450508;28;20326;-55
2024/03/18 07:22:45;;;;;;;10.93;3.10;;;;;;;17.29;59.63;101288.44;10447639;28;20380;-56
2024/03/18 07:27:45;;;;;;;13.37;3.43;;;;;;;17.24;58.42;101282.00;10446376;28;20500;-55
2024/03/18 07:32:46;;;;;;;9.13;3.53;;;;;;;17.21;59.05;101282.56;10458544;28;20287;-56
2024/03/18 07:37:47;;;;;;;9.15;3.05;;;;;;;17.20;59.32;101280.16;10438005;28;20021;-56
2024/03/18 07:42:47;;;;;;;10.50;3.63;;;;;;;17.15;58.65;101274.78;10446533;28;20025;-57
2024/03/18 07:47:47;;;;;;;5.90;2.73;;;;;;;17.17;58.45;101284.19;10444122;28;20643;-56
2024/03/18 07:52:48;;;;;;;7.10;3.43;;;;;;;17.18;57.63;101287.66;10446211;28;20290;-56
2024/03/18 07:57:48;;;;;;;9.03;3.20;;;;;;;17.18;57.57;101288.47;10443664;28;20370;-56
2024/03/18 08:02:49;;;;;;;6.03;2.88;;;;;;;17.15;58.29;101293.53;10441537;28;20272;-56
2024/03/18 08:07:49;;;;;;;5.43;3.45;;;;;;;17.14;58.38;101310.69;10444874;28;20468;-56
2024/03/18 08:12:49;;;;;;;7.35;2.78;;;;;;;17.18;59.33;101317.94;10447237;28;20500;-56
2024/03/18 08:17:50;;;;;;;6.00;3.45;;;;;;;17.20;58.59;101323.81;10453750;28;20400;-55
2024/03/18 08:22:50;;;;;;;4.88;2.72;;;;;;;17.21;58.58;101316.59;10455716;28;20025;-55
2024/03/18 08:27:51;;;;;;;8.52;3.20;;;;;;;17.19;57.58;101324.91;10455341;28;20487;-56
2024/03/18 08:32:51;;;;;;;6.47;2.73;;;;;;;17.16;57.54;101338.00;10451988;28;20521;-56
2024/03/18 08:37:51;;;;;;;4.80;2.93;;;;;;;17.20;58.30;101331.06;10471358;28;20325;-56
2024/03/18 08:42:52;;;;;;;5.50;2.90;;;;;;;17.22;58.32;101343.13;10455065;28;20278;-56
2024/03/18 08:47:52;;;;;;;5.93;3.03;;;;;;;17.23;58.06;101342.03;10454987;28;20286;-56
2024/03/18 08:52:52;;;;;;;3.63;2.43;;;;;;;17.23;58.69;101341.22;10454734;28;20296;-56
2024/03/18 08:57:52;;;;;;;5.87;2.77;;;;;;;17.25;58.16;101347.91;10454269;28;20279;-56
2024/03/18 09:02:53;;;;;;;4.87;3.20;;;;;;;17.31;57.97;101350.59;10454728;28;20271;-56
2024/03/18 09:07:54;;;;;;;3.73;2.50;;;;;;;17.29;57.61;101356.25;10453914;28;20276;-56
2024/03/18 09:12:54;;;;;;;5.47;2.90;;;;;;;17.27;56.98;101350.31;10454153;28;20307;-57
2024/03/18 09:17:55;;;;;;;4.50;2.60;;;;;;;17.24;57.29;101357.03;10449871;28;20026;-56
2024/03/18 09:22:55;;;;;;;6.75;2.53;;;;;;;17.23;57.33;101355.44;10440510;28;20044;-56
2024/03/18 09:27:55;;;;;;;4.30;2.60;;;;;;;17.21;58.18;101349.56;10453014;28;20021;-56
2024/03/18 09:32:56;;;;;;;4.90;3.03;;;;;;;17.19;57.45;101353.56;10465585;28;20743;-56
2024/03/18 09:37:56;;;;;;;5.45;2.50;;;;;;;17.22;57.43;101347.66;10449054;28;20280;-55
2024/03/18 09:42:56;;;;;;;3.88;2.58;;;;;;;17.23;57.19;101354.63;10452398;28;20030;-56
2024/03/18 09:47:57;;;;;;;5.60;2.88;;;;;;;17.31;57.96;101347.94;10451855;28;20502;-56
2024/03/18 09:52:58;;;;;;;5.50;2.83;;;;;;;17.32;57.64;101371.78;10446523;28;20028;-55
2024/03/18 09:57:59;;;;;;;6.20;3.00;;;;;;;17.31;57.60;101361.34;10445769;28;20372;-55
2024/03/18 10:03:00;;;;;;;6.53;2.75;;;;;;;17.29;57.54;101366.16;10446714;28;20021;-55
2024/03/18 10:08:03;;;;;;;4.30;3.20;;;;;;;17.29;58.25;101364.28;10433110;28;20087;-55
2024/03/18 10:13:03;;;;;;;3.78;2.50;;;;;;;17.27;57.35;101362.94;10441914;28;20516;-55
2024/03/18 10:18:09;;;;;;;5.30;2.67;;;;;;;17.24;57.25;101370.44;10451285;28;20054;-56
2024/03/18 10:23:12;;;;;;;4.35;3.00;;;;;;;17.20;57.56;101369.38;10448144;28;20287;-56
2024/03/18 10:28:13;;;;;;;3.70;2.28;;;;;;;17.18;58.32;101370.72;10434666;28;20108;-55
2024/03/18 10:33:16;;;;;;;5.78;2.55;;;;;;;17.17;58.86;101375.28;10464210;28;20451;-55
2024/03/18 10:38:23;;;;;;;4.18;2.63;;;;;;;17.19;58.74;101375.03;10449779;28;20484;-56
2024/03/18 10:43:35;;;;;;;9.35;3.03;;;;;;;17.16;57.78;101381.69;10450500;28;20017;-56
2024/03/18 10:48:36;;;;;;;3.83;2.45;;;;;;;17.16;58.65;101378.22;10450040;28;20037;-55
2024/03/18 10:53:37;;;;;;;5.55;2.92;;;;;;;17.16;57.69;101386.25;10450117;28;20024;-56
2024/03/18 10:58:38;;;;;;;3.45;2.10;;;;;;;17.12;57.70;101387.88;10443248;28;20028;-56
2024/03/18 11:03:44;;;;;;;3.78;2.30;;;;;;;17.13;57.92;101397.50;10447775;28;20446;-56
2024/03/18 11:08:47;;;;;;;5.80;2.67;;;;;;;17.11;57.82;101400.47;10434064;28;20108;-55
2024/03/18 11:13:48;;;;;;;3.33;2.15;;;;;;;17.09;58.67;101401.81;10445330;28;20041;-54
2024/03/18 11:18:48;;;;;;;3.53;2.45;;;;;;;17.04;58.63;101402.59;10449450;28;20865;-55
2024/03/18 11:24:00;;;;;;;4.67;2.70;;;;;;;17.04;59.27;101397.25;10448571;28;20051;-54
2024/03/18 11:29:08;;;;;;;4.28;2.10;;;;;;;17.10;59.09;101395.38;10448997;28;20283;-56
2024/03/18 11:34:09;;;;;;;3.95;2.85;;;;;;;17.13;58.34;101395.63;10462414;28;20393;-56
2024/03/18 11:39:12;;;;;;;4.70;2.75;;;;;;;17.15;58.81;101392.69;10447811;28;20032;-56
2024/03/18 11:44:13;;;;;;;4.43;2.50;;;;;;;17.11;58.27;101405.81;10447742;28;20105;-56
2024/03/18 11:49:21;;;;;;;5.18;2.72;;;;;;;17.10;59.01;101406.91;10449916;28;20024;-56
2024/03/18 11:54:21;;;;;;;5.57;3.63;;;;;;;17.10;57.96;101400.75;10457338;28;20665;-53
2024/03/18 11:59:24;;;;;;;8.50;2.78;;;;;;;17.12;59.04;101410.13;10454815;28;20024;-57
2024/03/18 12:04:24;;;;;;;3.97;2.60;;;;;;;17.12;59.54;101398.59;10454566;28;20029;-56
2024/03/18 12:09:27;;;;;;;4.80;3.25;;;;;;;17.14;58.42;101399.13;10454067;28;20024;-56
2024/03/18 12:14:28;;;;;;;3.47;2.42;;;;;;;17.13;58.35;101403.69;10452877;28;20044;-55
2024/03/18 12:19:30;;;;;;;4.78;2.78;;;;;;;17.11;59.09;101407.72;10454356;28;20029;-56
2024/03/18 12:29:51;;;;;;;6.25;3.00;;;;;;;17.16;60.01;101384.38;10455206;28;20033;-56
2024/03/18 12:34:52;;;;;;;5.75;2.85;;;;;;;17.19;59.42;101386.53;10466800;28;20039;-56
2024/03/18 12:39:53;;;;;;;6.35;2.55;;;;;;;17.22;59.40;101386.00;10453472;28;20043;-55
2024/03/18 12:44:54;;;;;;;4.72;2.83;;;;;;;17.22;59.12;101393.22;10442546;28;20032;-57
2024/03/18 12:49:54;;;;;;;7.60;3.10;;;;;;;17.24;59.26;101410.63;10448496;28;20592;-57
2024/03/18 12:54:54;;;;;;;6.55;2.88;;;;;;;17.32;58.86;101401.25;10454012;28;20296;-56
2024/03/18 12:59:55;;;;;;;4.57;2.40;;;;;;;17.40;59.44;101397.22;10454321;28;20476;-56
2024/03/18 13:04:55;;;;;;;5.50;2.95;;;;;;;17.49;57.85;101384.88;10454015;28;20324;-56
2024/03/18 13:09:55;;;;;;;4.63;3.03;;;;;;;17.47;57.74;101389.72;10450440;28;20032;-56
2024/03/18 13:14:57;;;;;;;8.82;3.30;;;;;;;17.46;59.44;101396.94;10450189;28;20292;-56
2024/03/18 13:20:05;;;;;;;9.63;3.10;;;;;;;17.58;58.73;101388.63;10453354;28;20025;-56
2024/03/18 13:25:06;;;;;;;14.25;3.20;;;;;;;17.71;59.69;101392.63;10450486;28;20032;-56
2024/03/18 13:30:07;;;;;;;52.28;7.00;;;;;;;17.87;58.53;101399.53;10447865;28;20438;-55
2024/03/18 13:35:07;;;;;;;52.15;7.78;;;;;;;17.95;59.84;101398.97;10449439;28;20443;-56
2024/03/18 13:40:08;;;;;;;57.88;8.40;;;;;;;18.00;59.40;101400.84;10447960;28;20032;-57
2024/03/18 13:45:09;;;;;;;45.65;8.45;;;;;;;18.05;59.83;101406.19;10448765;28;20031;-56
2024/03/18 13:50:09;;;;;;;27.60;5.35;;;;;;;18.07;58.60;101399.47;10450164;28;20472;-56
2024/03/18 13:55:13;;;;;;;26.33;6.28;;;;;;;18.05;58.73;101390.91;10419740;28;20351;-55
2024/03/18 14:00:19;;;;;;;35.95;5.25;;;;;;;18.04;58.67;101397.34;10434390;28;20044;-55
2024/03/18 14:05:19;;;;;;;19.38;4.03;;;;;;;18.07;58.60;101410.19;10447106;28;20056;-54
2024/03/18 14:10:20;;;;;;;27.20;5.27;;;;;;;18.08;58.28;101393.03;10447853;28;20071;-57
2024/03/18 14:15:20;;;;;;;27.20;4.80;;;;;;;18.06;58.64;101399.75;10438317;28;20978;-57
2024/03/18 14:20:21;;;;;;;30.98;5.72;;;;;;;17.98;57.66;101403.00;10445733;28;20825;-58
2024/03/18 14:25:21;;;;;;;16.70;4.77;;;;;;;17.90;57.09;101401.69;10451133;28;20538;-56
2024/03/18 14:30:23;;;;;;;16.55;4.72;;;;;;;17.79;57.58;101397.44;10449758;28;20453;-57
2024/03/18 14:35:23;;;;;;;13.43;4.50;;;;;;;17.71;57.63;101403.34;10459422;28;20033;-56
2024/03/18 14:40:26;;;;;;;13.20;4.18;;;;;;;17.65;57.19;101405.22;10433831;28;20469;-58
2024/03/18 14:45:27;;;;;;;15.32;5.13;;;;;;;17.61;56.48;101408.72;10441488;28;20056;-57
2024/03/18 14:50:28;;;;;;;21.30;4.05;;;;;;;17.61;56.56;101411.38;10449343;28;20031;-57
2024/03/18 14:55:28;;;;;;;15.38;4.50;;;;;;;17.58;56.38;101412.75;10446854;28;20025;-58
2024/03/18 15:00:28;;;;;;;16.67;4.03;;;;;;;17.54;55.79;101420.53;10448921;28;20036;-56
2024/03/18 15:05:29;;;;;;;12.53;2.90;;;;;;;17.51;56.40;101421.06;10446208;28;20318;-56
2024/03/18 15:10:29;;;;;;;12.40;3.30;;;;;;;17.61;56.58;101414.06;10448894;28;20283;-58
2024/03/18 15:15:29;;;;;;;13.70;3.40;;;;;;;17.58;55.98;101411.94;10447023;28;20295;-57
2024/03/18 15:20:30;;;;;;;19.57;4.03;;;;;;;17.64;56.16;101416.19;10447288;28;20631;-56
2024/03/18 15:30:49;;;;;;;18.70;4.57;;;;;;;17.77;57.14;101413.00;10447787;28;20488;-57
2024/03/18 15:35:50;;;;;;;23.15;4.13;;;;;;;17.89;57.24;101413.50;10449135;28;20123;-57
2024/03/18 15:40:51;;;;;;;11.70;3.83;;;;;;;17.88;57.01;101411.91;10440675;28;20111;-57
2024/03/18 15:45:51;;;;;;;16.02;4.47;;;;;;;17.79;56.99;101421.59;10457783;28;20291;-56
2024/03/18 15:50:51;;;;;;;28.07;5.40;;;;;;;17.67;57.93;101405.75;10446826;28;20112;-56
2024/03/18 15:55:52;;;;;;;21.05;4.07;;;;;;;17.63;58.37;101415.41;10447952;28;20291;-57
2024/03/18 16:00:53;;;;;;;32.07;5.33;;;;;;;17.66;57.98;101409.53;10441175;28;20119;-56
2024/03/18 16:05:53;;;;;;;20.20;4.82;;;;;;;17.66;57.95;101422.94;10445120;28;20366;-57
2024/03/18 16:10:56;;;;;;;23.37;3.77;;;;;;;17.61;58.69;101414.88;10446007;28;20041;-57
2024/03/18 16:15:56;;;;;;;23.20;3.70;;;;;;;17.61;57.46;101420.25;10446937;28;20793;-57
2024/03/18 16:20:58;;;;;;;23.40;3.80;;;;;;;17.55;58.56;101418.66;10447684;28;20021;-56
2024/03/18 16:25:58;;;;;;;16.27;3.33;;;;;;;17.59;57.79;101425.06;10436585;28;20432;-56
2024/03/18 16:30:59;;;;;;;17.80;4.78;;;;;;;17.62;60.33;101423.72;10452463;28;20032;-56
2024/03/18 16:35:59;;;;;;;23.00;4.63;;;;;;;17.99;61.45;101426.84;10448730;28;20035;-53
2024/03/18 16:40:59;;;;;;;12.52;4.70;;;;;;;18.11;63.03;101434.59;10468336;28;20374;-55
2024/03/18 16:46:00;;;;;;;16.93;4.87;;;;;;;18.18;61.51;101437.00;10455074;28;20524;-53
2024/03/18 16:51:01;;;;;;;14.27;3.70;;;;;;;18.10;60.87;101438.38;10452568;28;20290;-57
2024/03/18 16:56:01;;;;;;;16.45;3.60;;;;;;;18.09;61.46;101444.81;10453170;28;20060;-57
2024/03/18 17:01:01;;;;;;;14.37;3.70;;;;;;;18.06;60.18;101440.00;10451959;28;20035;-57
2024/03/18 17:06:02;;;;;;;12.52;3.72;;;;;;;18.08;60.63;101449.38;10454092;28;20321;-52
2024/03/18 17:11:03;;;;;;;12.50;3.10;;;;;;;18.07;59.63;101453.13;10453220;28;20132;-54
2024/03/18 17:16:06;;;;;;;9.88;2.83;;;;;;;18.10;61.37;101455.28;10454148;28;20025;-56
2024/03/18 17:21:07;;;;;;;18.05;4.50;;;;;;;18.12;62.03;101449.66;10451322;28;20091;-56
2024/03/18 17:26:07;;;;;;;20.40;3.80;;;;;;;17.93;61.08;101456.69;10448958;28;20079;-58
2024/03/18 17:31:08;;;;;;;22.48;4.55;;;;;;;17.86;61.98;101453.47;10455749;28;20295;-58
2024/03/18 17:36:08;;;;;;;17.60;4.73;;;;;;;17.83;61.55;101461.00;10451871;28;20098;-59
2024/03/18 17:41:12;;;;;;;27.73;4.68;;;;;;;17.73;61.16;101454.84;10449421;28;20958;-58
2024/03/18 17:46:12;;;;;;;19.23;4.25;;;;;;;17.70;61.58;101472.28;10447215;28;20078;-58
2024/03/18 17:51:13;;;;;;;16.27;3.58;;;;;;;17.73;61.72;101477.09;10452601;28;20074;-58
2024/03/18 17:56:13;;;;;;;13.52;3.53;;;;;;;17.81;60.58;101483.81;10424808;28;20033;-58
2024/03/18 18:01:14;;;;;;;15.98;4.18;;;;;;;17.85;60.64;101484.84;10411588;28;20087;-59
2024/03/18 18:06:14;;;;;;;14.65;5.35;;;;;;;17.83;59.90;101482.44;10424770;28;20116;-57
2024/03/18 18:11:17;;;;;;;12.47;2.90;;;;;;;17.79;60.24;101499.38;10422907;28;20037;-59
2024/03/18 18:16:19;;;;;;;11.68;2.72;;;;;;;17.72;59.55;101502.31;10436911;28;20291;-57
2024/03/18 18:21:19;;;;;;;9.18;4.00;;;;;;;17.68;60.01;101505.78;10450991;28;20048;-58
2024/03/18 18:26:19;;;;;;;6.93;2.50;;;;;;;17.64;59.84;101508.22;10450314;28;20108;-58
2024/03/18 18:31:20;;;;;;;9.02;2.10;;;;;;;17.63;59.19;101506.59;10458236;28;20361;-58
2024/03/18 18:36:20;;;;;;;6.57;2.20;;;;;;;17.62;59.91;101518.38;10447141;28;20396;-58
2024/03/18 18:41:20;;;;;;;11.50;2.93;;;;;;;17.58;59.49;101522.69;10408388;28;20279;-60
2024/03/18 18:46:21;;;;;;;10.47;3.00;;;;;;;17.58;59.82;101533.41;10409693;28;20283;-64
2024/03/18 18:51:21;;;;;;;15.10;3.87;;;;;;;17.59;59.97;101528.84;10431950;28;20279;-60
2024/03/18 18:56:22;;;;;;;12.90;2.40;;;;;;;17.57;59.07;101525.66;10447255;28;20299;-60
2024/03/18 19:01:22;;;;;;;9.48;2.55;;;;;;;17.55;59.21;101531.28;10449832;28;20091;-61
2024/03/18 19:06:23;;;;;;;6.67;2.67;;;;;;;17.57;60.07;101536.38;10450677;28;20388;-61
2024/03/18 19:11:24;;;;;;;5.95;2.28;;;;;;;17.56;58.41;101534.75;10449740;28;20303;-61
2024/03/18 19:16:25;;;;;;;11.27;3.03;;;;;;;17.54;59.35;101543.88;10444624;28;20088;-61
2024/03/18 19:21:25;;;;;;;8.75;2.40;;;;;;;17.52;58.71;101550.56;10408740;28;20116;-60
2024/03/18 19:26:25;;;;;;;8.77;2.10;;;;;;;17.52;59.41;101550.56;10409038;28;20377;-60
2024/03/18 19:31:26;;;;;;;8.07;2.70;;;;;;;17.51;59.22;101552.44;10453716;28;20362;-60
2024/03/18 19:36:26;;;;;;;8.03;2.43;;;;;;;17.49;58.92;101554.59;10453778;28;20349;-60
2024/03/18 19:41:26;;;;;;;5.93;2.33;;;;;;;17.50;58.55;101560.75;10449356;28;21570;-60
2024/03/18 19:46:27;;;;;;;6.45;2.45;;;;;;;17.47;58.60;101562.09;10423564;28;20083;-59
2024/03/18 19:51:27;;;;;;;5.88;1.85;;;;;;;17.47;57.87;101564.78;10421361;28;20116;-60
2024/03/18 19:56:29;;;;;;;7.87;2.13;;;;;;;17.47;57.87;101553.25;10414859;28;20036;-61
2024/03/18 20:01:29;;;;;;;10.13;2.38;;;;;;;17.48;58.66;101558.34;10416700;28;20264;-61
2024/03/18 20:06:29;;;;;;;7.20;2.10;;;;;;;17.45;58.81;101566.94;10440386;28;20051;-63
2024/03/18 20:11:30;;;;;;;5.47;2.40;;;;;;;17.46;58.28;101565.84;10449436;28;20850;-60
2024/03/18 20:16:32;;;;;;;8.13;2.17;;;;;;;17.49;58.50;101572.56;10423728;28;20299;-62
2024/03/18 20:21:33;;;;;;;6.68;2.30;;;;;;;17.47;57.90;101566.66;10432804;28;20285;-60
2024/03/18 20:26:34;;;;;;;4.30;2.00;;;;;;;17.46;58.40;101578.47;10452274;28;20021;-60
2024/03/18 20:31:34;;;;;;;3.20;1.73;;;;;;;17.43;59.41;101573.63;10454732;28;20032;-61
2024/03/18 20:36:34;;;;;;;4.47;1.63;;;;;;;17.42;59.39;101570.16;10454367;28;20693;-61
2024/03/18 20:41:35;;;;;;;5.45;1.60;;;;;;;17.39;58.90;101565.31;10450337;28;20286;-61
2024/03/18 20:46:35;;;;;;;6.78;2.65;;;;;;;17.40;58.89;101563.41;10448878;28;20033;-60
2024/03/18 20:51:37;;;;;;;4.93;1.77;;;;;;;17.39;57.68;101562.63;10451730;28;20104;-61
2024/03/18 20:56:37;;;;;;;5.95;1.73;;;;;;;17.41;58.14;101575.78;10451541;28;20294;-59
2024/03/18 21:01:38;;;;;;;3.83;1.40;;;;;;;17.40;58.69;101566.91;10451666;28;20020;-60
2024/03/18 21:06:38;;;;;;;4.23;1.53;;;;;;;17.40;58.07;101561.53;10460331;28;20538;-61
2024/03/18 21:11:39;;;;;;;4.32;2.47;;;;;;;17.44;57.57;101559.97;10453538;28;20287;-60
2024/03/18 21:16:39;;;;;;;4.07;1.77;;;;;;;17.47;57.74;101556.75;10449943;28;20017;-61
2024/03/18 21:21:39;;;;;;;9.38;3.33;;;;;;;17.48;57.49;101552.97;10450201;28;20017;-60
2024/03/18 21:26:40;;;;;;;4.50;2.13;;;;;;;17.51;57.77;101571.22;10440618;28;20045;-60
2024/03/18 21:31:40;;;;;;;4.57;1.73;;;;;;;17.54;56.78;101556.50;10461906;28;20279;-61
2024/03/18 21:36:40;;;;;;;4.53;2.10;;;;;;;17.53;57.59;101562.94;10455815;28;20284;-60
2024/03/18 21:41:41;;;;;;;4.07;2.00;;;;;;;17.52;57.03;101564.81;10454127;28;20059;-60
2024/03/18 21:46:41;;;;;;;4.67;2.10;;;;;;;17.53;57.97;101571.78;10453272;28;20283;-60
2024/03/18 21:51:41;;;;;;;4.23;1.40;;;;;;;17.53;56.19;101577.13;10453440;28;20275;-60
2024/03/18 21:56:42;;;;;;;4.33;2.10;;;;;;;17.52;57.68;101563.97;10451363;28;20037;-60
2024/03/18 22:01:48;;;;;;;3.30;1.48;;;;;;;17.51;56.79;101573.09;10452892;28;20283;-60
2024/03/18 22:06:49;;;;;;;3.40;1.63;;;;;;;17.47;57.25;101577.38;10432082;28;20029;-60
2024/03/18 22:11:49;;;;;;;4.20;1.20;;;;;;;17.43;56.94;101574.44;10430610;28;20045;-60
2024/03/18 22:16:50;;;;;;;3.20;1.50;;;;;;;17.44;56.38;101575.25;10423020;28;20029;-60
2024/03/18 22:21:50;;;;;;;2.35;1.10;;;;;;;17.42;57.14;101574.72;10411256;28;20276;-60
2024/03/18 22:26:51;;;;;;;3.20;1.25;;;;;;;17.41;57.07;101565.06;10420975;28;20025;-60
2024/03/18 22:31:51;;;;;;;2.13;1.48;;;;;;;17.38;56.71;101568.25;10463068;28;20646;-60
2024/03/18 22:36:51;;;;;;;2.93;1.30;;;;;;;17.37;57.07;101563.97;10451056;28;20473;-61
2024/03/18 22:41:53;;;;;;;2.65;1.27;;;;;;;17.37;57.43;101559.41;10450154;28;20275;-61
2024/03/18 22:46:53;;;;;;;3.42;1.45;;;;;;;17.40;56.54;101558.88;10449691;28;20025;-60
2024/03/18 22:51:54;;;;;;;2.10;1.20;;;;;;;17.44;55.93;101561.84;10451390;28;20029;-60
2024/03/18 22:56:54;;;;;;;3.37;1.47;;;;;;;17.46;56.17;101557.81;10450427;28;20041;-59
2024/03/18 23:01:54;;;;;;;5.22;1.67;;;;;;;17.46;56.30;101552.44;10450794;28;20282;-60
2024/03/18 23:06:55;;;;;;;2.13;1.30;;;;;;;17.51;56.14;101559.69;10450348;28;20109;-61